sensor_id;sensor_type;location;lat;lon;timestamp;P1;P2;P0
68841;PMS5003;55849;48.482;2.332;2023-12-14T00:00:28;0.75;0.00;0.00
68841;PMS5003;55849;48.482;2.332;2023-12-14T00:03:31;0.00;0.00;0.00
68841;PMS5003;55849;48.482;2.332;2023-12-14T00:06:33;1.00;1.00;1.00
68841;PMS5003;55849;48.482;2.332;2023-12-14T00:09:35;0.75;0.75;0.50
68841;PMS5003;55849;48.482;2.332;2023-12-14T00:12:37;1.25;1.25;1.25
68841;PMS5003;55849;48.482;2.332;2023-12-14T00:15:38;1.25;0.75;0.75
68841;PMS5003;55849;48.482;2.332;2023-12-14T00:18:40;0.25;0.25;0.00
68841;PMS5003;55849;48.482;2.332;2023-12-14T00:21:43;1.00;1.00;0.00
68841;PMS5003;55849;48.482;2.332;2023-12-14T00:24:45;0.50;0.50;0.00
68841;PMS5003;55849;48.482;2.332;2023-12-14T00:27:46;5.25;2.00;0.75
68841;PMS5003;55849;48.482;2.332;2023-12-14T00:30:48;0.00;0.00;0.00
68841;PMS5003;55849;48.482;2.332;2023-12-14T00:33:49;0.00;0.00;0.00
68841;PMS5003;55849;48.482;2.332;2023-12-14T00:36:52;0.00;0.00;0.00
68841;PMS5003;55849;48.482;2.332;2023-12-14T00:39:54;0.75;0.00;0.00
68841;PMS5003;55849;48.482;2.332;2023-12-14T00:42:56;3.00;0.25;0.00
68841;PMS5003;55849;48.482;2.332;2023-12-14T00:45:57;0.00;0.00;0.00
68841;PMS5003;55849;48.482;2.332;2023-12-14T00:48:59;1.00;1.00;0.00
68841;PMS5003;55849;48.482;2.332;2023-12-14T00:52:03;0.00;0.00;0.00
68841;PMS5003;55849;48.482;2.332;2023-12-14T00:55:06;0.00;0.00;0.00
68841;PMS5003;55849;48.482;2.332;2023-12-14T00:58:08;0.00;0.00;0.00
68841;PMS5003;55849;48.482;2.332;2023-12-14T01:01:09;0.00;0.00;0.00
68841;PMS5003;55849;48.482;2.332;2023-12-14T01:04:11;0.00;0.00;0.00
68841;PMS5003;55849;48.482;2.332;2023-12-14T01:07:14;0.00;0.00;0.00
68841;PMS5003;55849;48.482;2.332;2023-12-14T01:10:16;2.50;0.00;0.00
68841;PMS5003;55849;48.482;2.332;2023-12-14T01:13:17;0.00;0.00;0.00
68841;PMS5003;55849;48.482;2.332;2023-12-14T01:16:19;0.00;0.00;0.00
68841;PMS5003;55849;48.482;2.332;2023-12-14T01:19:20;0.00;0.00;0.00
68841;PMS5003;55849;48.482;2.332;2023-12-14T01:22:23;0.00;0.00;0.00
68841;PMS5003;55849;48.482;2.332;2023-12-14T01:25:25;2.50;0.75;0.00
68841;PMS5003;55849;48.482;2.332;2023-12-14T01:28:26;0.00;0.00;0.00
68841;PMS5003;55849;48.482;2.332;2023-12-14T01:31:28;0.00;0.00;0.00
68841;PMS5003;55849;48.482;2.332;2023-12-14T01:34:30;0.00;0.00;0.00
68841;PMS5003;55849;48.482;2.332;2023-12-14T01:37:32;0.00;0.00;0.00
68841;PMS5003;55849;48.482;2.332;2023-12-14T01:40:34;0.00;0.00;0.00
68841;PMS5003;55849;48.482;2.332;2023-12-14T01:43:36;1.00;1.00;0.00
68841;PMS5003;55849;48.482;2.332;2023-12-14T01:46:37;0.00;0.00;0.00
68841;PMS5003;55849;48.482;2.332;2023-12-14T01:49:39;0.00;0.00;0.00
68841;PMS5003;55849;48.482;2.332;2023-12-14T01:52:42;0.00;0.00;0.00
68841;PMS5003;55849;48.482;2.332;2023-12-14T01:55:44;0.00;0.00;0.00
68841;PMS5003;55849;48.482;2.332;2023-12-14T01:58:45;2.50;0.00;0.00
68841;PMS5003;55849;48.482;2.332;2023-12-14T02:01:52;0.00;0.00;0.00
68841;PMS5003;55849;48.482;2.332;2023-12-14T02:04:56;0.00;0.00;0.00
68841;PMS5003;55849;48.482;2.332;2023-12-14T02:07:59;0.00;0.00;0.00
68841;PMS5003;55849;48.482;2.332;2023-12-14T02:11:00;0.00;0.00;0.00
68841;PMS5003;55849;48.482;2.332;2023-12-14T02:14:05;0.25;0.00;0.00
68841;PMS5003;55849;48.482;2.332;2023-12-14T02:17:07;0.00;0.00;0.00
68841;PMS5003;55849;48.482;2.332;2023-12-14T02:20:08;0.00;0.00;0.00
68841;PMS5003;55849;48.482;2.332;2023-12-14T02:23:12;0.00;0.00;0.00
68841;PMS5003;55849;48.482;2.332;2023-12-14T02:26:13;0.00;0.00;0.00
68841;PMS5003;55849;48.482;2.332;2023-12-14T02:29:15;0.00;0.00;0.00
68841;PMS5003;55849;48.482;2.332;2023-12-14T02:32:17;0.00;0.00;0.00
68841;PMS5003;55849;48.482;2.332;2023-12-14T02:35:18;0.00;0.00;0.00
68841;PMS5003;55849;48.482;2.332;2023-12-14T02:38:21;0.00;0.00;0.00
68841;PMS5003;55849;48.482;2.332;2023-12-14T02:41:23;0.00;0.00;0.00
68841;PMS5003;55849;48.482;2.332;2023-12-14T02:44:24;0.00;0.00;0.00
68841;PMS5003;55849;48.482;2.332;2023-12-14T02:47:26;0.00;0.00;0.00
68841;PMS5003;55849;48.482;2.332;2023-12-14T02:50:28;0.00;0.00;0.00
68841;PMS5003;55849;48.482;2.332;2023-12-14T02:53:30;0.00;0.00;0.00
68841;PMS5003;55849;48.482;2.332;2023-12-14T02:56:33;0.00;0.00;0.00
68841;PMS5003;55849;48.482;2.332;2023-12-14T02:59:34;0.00;0.00;0.00
68841;PMS5003;55849;48.482;2.332;2023-12-14T03:02:36;1.50;0.00;0.00
68841;PMS5003;55849;48.482;2.332;2023-12-14T03:05:38;0.00;0.00;0.00
68841;PMS5003;55849;48.482;2.332;2023-12-14T03:08:41;0.00;0.00;0.00
68841;PMS5003;55849;48.482;2.332;2023-12-14T03:11:42;0.00;0.00;0.00
68841;PMS5003;55849;48.482;2.332;2023-12-14T03:14:44;0.00;0.00;0.00
68841;PMS5003;55849;48.482;2.332;2023-12-14T03:17:46;0.00;0.00;0.00
68841;PMS5003;55849;48.482;2.332;2023-12-14T03:20:47;0.00;0.00;0.00
68841;PMS5003;55849;48.482;2.332;2023-12-14T03:23:50;0.75;0.75;0.00
68841;PMS5003;55849;48.482;2.332;2023-12-14T03:26:52;0.00;0.00;0.00
68841;PMS5003;55849;48.482;2.332;2023-12-14T03:29:53;0.00;0.00;0.00
68841;PMS5003;55849;48.482;2.332;2023-12-14T03:32:55;0.00;0.00;0.00
68841;PMS5003;55849;48.482;2.332;2023-12-14T03:35:56;1.00;0.00;0.00
68841;PMS5003;55849;48.482;2.332;2023-12-14T03:39:00;0.00;0.00;0.00
68841;PMS5003;55849;48.482;2.332;2023-12-14T03:42:02;0.00;0.00;0.00
68841;PMS5003;55849;48.482;2.332;2023-12-14T03:45:05;0.00;0.00;0.00
68841;PMS5003;55849;48.482;2.332;2023-12-14T03:48:07;0.00;0.00;0.00
68841;PMS5003;55849;48.482;2.332;2023-12-14T03:51:09;1.00;0.00;0.00
68841;PMS5003;55849;48.482;2.332;2023-12-14T03:54:12;0.25;0.00;0.00
68841;PMS5003;55849;48.482;2.332;2023-12-14T03:57:13;0.00;0.00;0.00
68841;PMS5003;55849;48.482;2.332;2023-12-14T04:00:15;0.00;0.00;0.00
68841;PMS5003;55849;48.482;2.332;2023-12-14T04:03:17;0.00;0.00;0.00
68841;PMS5003;55849;48.482;2.332;2023-12-14T04:06:19;0.00;0.00;0.00
68841;PMS5003;55849;48.482;2.332;2023-12-14T04:09:22;0.00;0.00;0.00
68841;PMS5003;55849;48.482;2.332;2023-12-14T04:12:23;0.00;0.00;0.00
68841;PMS5003;55849;48.482;2.332;2023-12-14T04:15:25;0.00;0.00;0.00
68841;PMS5003;55849;48.482;2.332;2023-12-14T04:18:26;0.00;0.00;0.00
68841;PMS5003;55849;48.482;2.332;2023-12-14T04:21:28;0.00;0.00;0.00
68841;PMS5003;55849;48.482;2.332;2023-12-14T04:24:31;0.00;0.00;0.00
68841;PMS5003;55849;48.482;2.332;2023-12-14T04:27:32;0.00;0.00;0.00
68841;PMS5003;55849;48.482;2.332;2023-12-14T04:30:34;0.00;0.00;0.00
68841;PMS5003;55849;48.482;2.332;2023-12-14T04:33:36;0.00;0.00;0.00
68841;PMS5003;55849;48.482;2.332;2023-12-14T04:36:37;1.00;0.00;0.00
68841;PMS5003;55849;48.482;2.332;2023-12-14T04:39:40;0.00;0.00;0.00
68841;PMS5003;55849;48.482;2.332;2023-12-14T04:42:42;0.00;0.00;0.00
68841;PMS5003;55849;48.482;2.332;2023-12-14T04:45:43;0.00;0.00;0.00
68841;PMS5003;55849;48.482;2.332;2023-12-14T04:48:45;0.00;0.00;0.00
68841;PMS5003;55849;48.482;2.332;2023-12-14T04:51:46;0.00;0.00;0.00
68841;PMS5003;55849;48.482;2.332;2023-12-14T04:54:49;0.00;0.00;0.00
68841;PMS5003;55849;48.482;2.332;2023-12-14T04:57:51;0.00;0.00;0.00
68841;PMS5003;55849;48.482;2.332;2023-12-14T05:00:52;0.00;0.00;0.00
68841;PMS5003;55849;48.482;2.332;2023-12-14T05:03:54;0.00;0.00;0.00
68841;PMS5003;55849;48.482;2.332;2023-12-14T05:06:56;1.00;0.00;0.00
68841;PMS5003;55849;48.482;2.332;2023-12-14T05:09:59;0.00;0.00;0.00
68841;PMS5003;55849;48.482;2.332;2023-12-14T05:13:00;0.00;0.00;0.00
68841;PMS5003;55849;48.482;2.332;2023-12-14T05:16:02;1.00;0.00;0.00
68841;PMS5003;55849;48.482;2.332;2023-12-14T05:19:04;0.00;0.00;0.00
68841;PMS5003;55849;48.482;2.332;2023-12-14T05:22:05;0.00;0.00;0.00
68841;PMS5003;55849;48.482;2.332;2023-12-14T05:25:09;0.00;0.00;0.00
68841;PMS5003;55849;48.482;2.332;2023-12-14T05:28:10;0.00;0.00;0.00
68841;PMS5003;55849;48.482;2.332;2023-12-14T05:31:12;0.00;0.00;0.00
68841;PMS5003;55849;48.482;2.332;2023-12-14T05:34:14;1.00;1.00;0.00
68841;PMS5003;55849;48.482;2.332;2023-12-14T05:37:16;0.00;0.00;0.00
68841;PMS5003;55849;48.482;2.332;2023-12-14T05:40:19;0.00;0.00;0.00
68841;PMS5003;55849;48.482;2.332;2023-12-14T05:43:20;0.00;0.00;0.00
68841;PMS5003;55849;48.482;2.332;2023-12-14T05:46:22;0.00;0.00;0.00
68841;PMS5003;55849;48.482;2.332;2023-12-14T05:49:24;0.00;0.00;0.00
68841;PMS5003;55849;48.482;2.332;2023-12-14T05:52:26;0.00;0.00;0.00
68841;PMS5003;55849;48.482;2.332;2023-12-14T05:55:29;0.00;0.00;0.00
68841;PMS5003;55849;48.482;2.332;2023-12-14T05:58:30;0.50;0.50;0.00
68841;PMS5003;55849;48.482;2.332;2023-12-14T06:01:32;0.00;0.00;0.00
68841;PMS5003;55849;48.482;2.332;2023-12-14T06:04:33;0.00;0.00;0.00
68841;PMS5003;55849;48.482;2.332;2023-12-14T06:07:35;0.75;0.25;0.00
68841;PMS5003;55849;48.482;2.332;2023-12-14T06:10:39;0.00;0.00;0.00
68841;PMS5003;55849;48.482;2.332;2023-12-14T06:13:40;3.00;1.00;0.00
68841;PMS5003;55849;48.482;2.332;2023-12-14T06:16:42;0.00;0.00;0.00
68841;PMS5003;55849;48.482;2.332;2023-12-14T06:19:43;3.25;0.50;0.50
68841;PMS5003;55849;48.482;2.332;2023-12-14T06:22:45;0.25;0.25;0.00
68841;PMS5003;55849;48.482;2.332;2023-12-14T06:25:48;0.00;0.00;0.00
68841;PMS5003;55849;48.482;2.332;2023-12-14T06:28:49;1.50;0.25;0.00
68841;PMS5003;55849;48.482;2.332;2023-12-14T06:31:51;0.00;0.00;0.00
68841;PMS5003;55849;48.482;2.332;2023-12-14T06:34:52;0.50;0.50;0.00
68841;PMS5003;55849;48.482;2.332;2023-12-14T06:37:54;0.00;0.00;0.00
68841;PMS5003;55849;48.482;2.332;2023-12-14T06:40:57;0.00;0.00;0.00
68841;PMS5003;55849;48.482;2.332;2023-12-14T06:43:59;0.00;0.00;0.00
68841;PMS5003;55849;48.482;2.332;2023-12-14T06:47:00;0.50;0.50;0.00
68841;PMS5003;55849;48.482;2.332;2023-12-14T06:50:02;0.00;0.00;0.00
68841;PMS5003;55849;48.482;2.332;2023-12-14T06:53:04;1.00;0.00;0.00
68841;PMS5003;55849;48.482;2.332;2023-12-14T06:56:07;0.00;0.00;0.00
68841;PMS5003;55849;48.482;2.332;2023-12-14T06:59:10;0.75;0.00;0.00
68841;PMS5003;55849;48.482;2.332;2023-12-14T07:02:12;3.25;1.00;1.00
68841;PMS5003;55849;48.482;2.332;2023-12-14T07:05:14;0.00;0.00;0.00
68841;PMS5003;55849;48.482;2.332;2023-12-14T07:08:15;1.00;0.00;0.00
68841;PMS5003;55849;48.482;2.332;2023-12-14T07:11:18;0.50;0.50;0.00
68841;PMS5003;55849;48.482;2.332;2023-12-14T07:14:20;0.00;0.00;0.00
68841;PMS5003;55849;48.482;2.332;2023-12-14T07:17:21;0.00;0.00;0.00
68841;PMS5003;55849;48.482;2.332;2023-12-14T07:20:23;0.00;0.00;0.00
68841;PMS5003;55849;48.482;2.332;2023-12-14T07:23:25;0.00;0.00;0.00
68841;PMS5003;55849;48.482;2.332;2023-12-14T07:26:28;1.00;1.00;0.25
68841;PMS5003;55849;48.482;2.332;2023-12-14T07:29:30;0.00;0.00;0.00
68841;PMS5003;55849;48.482;2.332;2023-12-14T07:32:31;0.00;0.00;0.00
68841;PMS5003;55849;48.482;2.332;2023-12-14T07:35:33;0.00;0.00;0.00
68841;PMS5003;55849;48.482;2.332;2023-12-14T07:38:35;1.50;0.00;0.00
68841;PMS5003;55849;48.482;2.332;2023-12-14T07:41:38;0.00;0.00;0.00
68841;PMS5003;55849;48.482;2.332;2023-12-14T07:44:39;0.00;0.00;0.00
68841;PMS5003;55849;48.482;2.332;2023-12-14T07:47:41;0.00;0.00;0.00
68841;PMS5003;55849;48.482;2.332;2023-12-14T07:50:43;0.00;0.00;0.00
68841;PMS5003;55849;48.482;2.332;2023-12-14T07:53:45;3.00;1.00;0.00
68841;PMS5003;55849;48.482;2.332;2023-12-14T07:56:49;0.00;0.00;0.00
68841;PMS5003;55849;48.482;2.332;2023-12-14T07:59:50;3.00;1.00;0.00
68841;PMS5003;55849;48.482;2.332;2023-12-14T08:02:52;0.00;0.00;0.00
68841;PMS5003;55849;48.482;2.332;2023-12-14T08:05:53;0.50;0.00;0.00
68841;PMS5003;55849;48.482;2.332;2023-12-14T08:08:55;0.00;0.00;0.00
68841;PMS5003;55849;48.482;2.332;2023-12-14T08:11:59;0.00;0.00;0.00
68841;PMS5003;55849;48.482;2.332;2023-12-14T08:15:00;0.25;0.25;0.00
68841;PMS5003;55849;48.482;2.332;2023-12-14T08:18:02;0.00;0.00;0.00
68841;PMS5003;55849;48.482;2.332;2023-12-14T08:21:04;0.00;0.00;0.00
68841;PMS5003;55849;48.482;2.332;2023-12-14T08:24:06;0.25;0.25;0.25
68841;PMS5003;55849;48.482;2.332;2023-12-14T08:27:09;0.50;0.50;0.00
68841;PMS5003;55849;48.482;2.332;2023-12-14T08:30:11;0.00;0.00;0.00
68841;PMS5003;55849;48.482;2.332;2023-12-14T08:33:14;0.00;0.00;0.00
68841;PMS5003;55849;48.482;2.332;2023-12-14T08:36:15;1.00;0.00;0.00
68841;PMS5003;55849;48.482;2.332;2023-12-14T08:39:17;0.00;0.00;0.00
68841;PMS5003;55849;48.482;2.332;2023-12-14T08:42:21;0.25;0.25;0.25
68841;PMS5003;55849;48.482;2.332;2023-12-14T08:45:22;0.50;0.50;0.00
68841;PMS5003;55849;48.482;2.332;2023-12-14T08:48:24;0.50;0.50;0.00
68841;PMS5003;55849;48.482;2.332;2023-12-14T08:51:25;0.00;0.00;0.00
68841;PMS5003;55849;48.482;2.332;2023-12-14T08:54:27;1.50;1.00;0.00
68841;PMS5003;55849;48.482;2.332;2023-12-14T08:57:30;3.00;0.00;0.00
68841;PMS5003;55849;48.482;2.332;2023-12-14T09:00:32;0.00;0.00;0.00
68841;PMS5003;55849;48.482;2.332;2023-12-14T09:03:33;3.00;0.00;0.00
68841;PMS5003;55849;48.482;2.332;2023-12-14T09:06:35;1.00;1.00;0.00
68841;PMS5003;55849;48.482;2.332;2023-12-14T09:09:36;3.25;1.00;0.00
68841;PMS5003;55849;48.482;2.332;2023-12-14T09:12:39;0.00;0.00;0.00
68841;PMS5003;55849;48.482;2.332;2023-12-14T09:15:41;1.00;1.00;0.25
68841;PMS5003;55849;48.482;2.332;2023-12-14T09:18:42;3.00;3.00;1.00
68841;PMS5003;55849;48.482;2.332;2023-12-14T09:21:44;1.50;1.50;0.00
68841;PMS5003;55849;48.482;2.332;2023-12-14T09:24:46;1.00;1.00;1.00
68841;PMS5003;55849;48.482;2.332;2023-12-14T09:27:49;1.50;0.75;0.00
68841;PMS5003;55849;48.482;2.332;2023-12-14T09:30:50;2.00;2.00;1.00
68841;PMS5003;55849;48.482;2.332;2023-12-14T09:33:52;4.00;4.00;1.00
68841;PMS5003;55849;48.482;2.332;2023-12-14T09:36:53;3.75;3.00;0.00
68841;PMS5003;55849;48.482;2.332;2023-12-14T09:39:55;0.00;0.00;0.00
68841;PMS5003;55849;48.482;2.332;2023-12-14T09:42:58;3.50;1.00;1.00
68841;PMS5003;55849;48.482;2.332;2023-12-14T09:45:59;4.00;1.50;0.00
68841;PMS5003;55849;48.482;2.332;2023-12-14T09:49:02;1.00;1.00;1.00
68841;PMS5003;55849;48.482;2.332;2023-12-14T09:52:05;0.25;0.25;0.00
68841;PMS5003;55849;48.482;2.332;2023-12-14T09:55:06;0.00;0.00;0.00
68841;PMS5003;55849;48.482;2.332;2023-12-14T09:58:09;0.00;0.00;0.00
68841;PMS5003;55849;48.482;2.332;2023-12-14T10:01:22;1.75;0.00;0.00
68841;PMS5003;55849;48.482;2.332;2023-12-14T10:04:24;3.75;3.00;1.00
68841;PMS5003;55849;48.482;2.332;2023-12-14T10:07:25;0.00;0.00;0.00
68841;PMS5003;55849;48.482;2.332;2023-12-14T10:10:28;0.00;0.00;0.00
68841;PMS5003;55849;48.482;2.332;2023-12-14T10:13:38;0.00;0.00;0.00
68841;PMS5003;55849;48.482;2.332;2023-12-14T10:16:40;1.00;1.00;0.00
68841;PMS5003;55849;48.482;2.332;2023-12-14T10:19:42;1.75;0.00;0.00
68841;PMS5003;55849;48.482;2.332;2023-12-14T10:22:44;0.75;0.75;0.25
68841;PMS5003;55849;48.482;2.332;2023-12-14T10:25:45;1.00;0.00;0.00
68841;PMS5003;55849;48.482;2.332;2023-12-14T10:28:48;0.00;0.00;0.00
68841;PMS5003;55849;48.482;2.332;2023-12-14T10:31:51;1.00;1.00;1.00
68841;PMS5003;55849;48.482;2.332;2023-12-14T10:34:53;2.00;1.00;0.00
68841;PMS5003;55849;48.482;2.332;2023-12-14T10:37:55;2.00;2.00;0.25
68841;PMS5003;55849;48.482;2.332;2023-12-14T10:40:59;1.00;0.25;0.00
68841;PMS5003;55849;48.482;2.332;2023-12-14T10:44:03;0.50;0.00;0.00
68841;PMS5003;55849;48.482;2.332;2023-12-14T10:47:06;3.75;3.75;1.00
68841;PMS5003;55849;48.482;2.332;2023-12-14T10:50:08;3.00;3.00;1.00
68841;PMS5003;55849;48.482;2.332;2023-12-14T10:53:12;3.75;2.00;0.50
68841;PMS5003;55849;48.482;2.332;2023-12-14T10:56:14;5.50;4.50;3.00
68841;PMS5003;55849;48.482;2.332;2023-12-14T10:59:19;3.00;3.00;0.00
68841;PMS5003;55849;48.482;2.332;2023-12-14T11:02:20;4.00;4.00;3.00
68841;PMS5003;55849;48.482;2.332;2023-12-14T11:05:22;1.00;0.50;0.25
68841;PMS5003;55849;48.482;2.332;2023-12-14T11:08:29;0.00;0.00;0.00
68841;PMS5003;55849;48.482;2.332;2023-12-14T11:11:30;3.50;3.25;1.00
68841;PMS5003;55849;48.482;2.332;2023-12-14T11:14:42;25.50;24.00;16.25
68841;PMS5003;55849;48.482;2.332;2023-12-14T11:17:50;16.75;13.50;9.75
68841;PMS5003;55849;48.482;2.332;2023-12-14T11:21:25;1.75;0.50;0.00
68841;PMS5003;55849;48.482;2.332;2023-12-14T11:24:26;5.00;1.00;0.00
68841;PMS5003;55849;48.482;2.332;2023-12-14T11:27:28;3.00;1.00;1.00
68841;PMS5003;55849;48.482;2.332;2023-12-14T11:30:32;3.00;3.00;1.00
68841;PMS5003;55849;48.482;2.332;2023-12-14T11:33:34;11.00;9.25;6.00
68841;PMS5003;55849;48.482;2.332;2023-12-14T11:36:36;0.00;0.00;0.00
68841;PMS5003;55849;48.482;2.332;2023-12-14T11:39:41;5.50;3.75;3.50
68841;PMS5003;55849;48.482;2.332;2023-12-14T11:42:44;12.75;9.25;6.25
68841;PMS5003;55849;48.482;2.332;2023-12-14T11:45:47;0.00;0.00;0.00
68841;PMS5003;55849;48.482;2.332;2023-12-14T11:48:49;1.00;1.00;1.00
68841;PMS5003;55849;48.482;2.332;2023-12-14T11:51:51;0.00;0.00;0.00
68841;PMS5003;55849;48.482;2.332;2023-12-14T11:54:53;3.00;0.25;0.00
68841;PMS5003;55849;48.482;2.332;2023-12-14T11:57:55;1.00;1.00;0.50
68841;PMS5003;55849;48.482;2.332;2023-12-14T12:00:58;3.25;3.00;1.00
68841;PMS5003;55849;48.482;2.332;2023-12-14T12:04:12;5.00;1.00;0.25
68841;PMS5003;55849;48.482;2.332;2023-12-14T12:07:13;3.25;1.50;1.00
68841;PMS5003;55849;48.482;2.332;2023-12-14T12:10:18;0.00;0.00;0.00
68841;PMS5003;55849;48.482;2.332;2023-12-14T12:13:20;1.00;0.25;0.00
68841;PMS5003;55849;48.482;2.332;2023-12-14T12:16:23;5.75;4.25;2.00
68841;PMS5003;55849;48.482;2.332;2023-12-14T12:19:25;0.00;0.00;0.00
68841;PMS5003;55849;48.482;2.332;2023-12-14T12:22:26;0.00;0.00;0.00
68841;PMS5003;55849;48.482;2.332;2023-12-14T12:25:28;5.50;3.00;0.25
68841;PMS5003;55849;48.482;2.332;2023-12-14T12:28:30;4.50;2.50;2.50
68841;PMS5003;55849;48.482;2.332;2023-12-14T12:31:34;4.00;3.75;3.75
68841;PMS5003;55849;48.482;2.332;2023-12-14T12:34:37;6.25;6.25;4.50
68841;PMS5003;55849;48.482;2.332;2023-12-14T16:47:27;20.00;18.75;10.50
68841;PMS5003;55849;48.482;2.332;2023-12-14T16:50:29;8.25;7.50;6.00
68841;PMS5003;55849;48.482;2.332;2023-12-14T16:53:30;12.75;10.00;8.00
68841;PMS5003;55849;48.482;2.332;2023-12-14T16:56:32;8.50;7.50;4.50
68841;PMS5003;55849;48.482;2.332;2023-12-14T16:59:34;11.75;11.75;9.00
68841;PMS5003;55849;48.482;2.332;2023-12-14T17:02:38;8.00;7.25;6.75
68841;PMS5003;55849;48.482;2.332;2023-12-14T17:05:40;11.00;11.00;9.00
68841;PMS5003;55849;48.482;2.332;2023-12-14T17:08:41;17.00;12.00;9.75
68841;PMS5003;55849;48.482;2.332;2023-12-14T17:11:43;5.00;5.00;3.25
68841;PMS5003;55849;48.482;2.332;2023-12-14T17:14:45;10.00;10.00;7.00
68841;PMS5003;55849;48.482;2.332;2023-12-14T17:17:48;17.50;15.00;11.00
68841;PMS5003;55849;48.482;2.332;2023-12-14T17:20:50;14.25;12.50;10.00
68841;PMS5003;55849;48.482;2.332;2023-12-14T17:23:52;25.25;18.50;14.50
68841;PMS5003;55849;48.482;2.332;2023-12-14T17:26:54;20.75;20.00;13.00
68841;PMS5003;55849;48.482;2.332;2023-12-14T17:29:56;15.00;13.00;10.00
68841;PMS5003;55849;48.482;2.332;2023-12-14T17:32:58;20.50;19.00;12.00
68841;PMS5003;55849;48.482;2.332;2023-12-14T17:36:00;29.50;24.00;17.50
68841;PMS5003;55849;48.482;2.332;2023-12-14T17:39:02;36.50;29.75;20.50
68841;PMS5003;55849;48.482;2.332;2023-12-14T17:42:04;31.25;29.25;18.00
68841;PMS5003;55849;48.482;2.332;2023-12-14T17:45:06;40.50;34.00;22.50
68841;PMS5003;55849;48.482;2.332;2023-12-14T17:48:10;41.25;37.50;24.00
68841;PMS5003;55849;48.482;2.332;2023-12-14T17:51:11;54.00;45.50;30.25
68841;PMS5003;55849;48.482;2.332;2023-12-14T17:54:13;53.00;47.50;31.50
68841;PMS5003;55849;48.482;2.332;2023-12-14T17:57:15;55.25;45.25;30.00
68841;PMS5003;55849;48.482;2.332;2023-12-14T18:00:16;23.75;23.50;17.00
68841;PMS5003;55849;48.482;2.332;2023-12-14T18:03:20;29.50;26.00;21.00
68841;PMS5003;55849;48.482;2.332;2023-12-14T18:06:22;6.50;6.50;3.00
68841;PMS5003;55849;48.482;2.332;2023-12-14T18:09:23;16.25;14.50;10.25
68841;PMS5003;55849;48.482;2.332;2023-12-14T18:12:25;21.25;19.00;15.00
68841;PMS5003;55849;48.482;2.332;2023-12-14T18:15:26;18.50;15.00;10.50
68841;PMS5003;55849;48.482;2.332;2023-12-14T18:18:29;14.75;13.50;10.00
68841;PMS5003;55849;48.482;2.332;2023-12-14T18:21:31;18.25;15.50;10.00
68841;PMS5003;55849;48.482;2.332;2023-12-14T18:24:32;37.00;35.00;21.00
68841;PMS5003;55849;48.482;2.332;2023-12-14T18:27:34;36.25;30.75;22.50
68841;PMS5003;55849;48.482;2.332;2023-12-14T18:30:36;33.50;23.50;15.25
68841;PMS5003;55849;48.482;2.332;2023-12-14T18:33:39;17.00;15.75;11.00
68841;PMS5003;55849;48.482;2.332;2023-12-14T18:36:40;18.25;14.00;10.00
68841;PMS5003;55849;48.482;2.332;2023-12-14T18:39:42;17.25;15.00;10.00
68841;PMS5003;55849;48.482;2.332;2023-12-14T18:42:44;15.50;13.00;10.00
68841;PMS5003;55849;48.482;2.332;2023-12-14T18:45:46;22.25;19.50;12.25
68841;PMS5003;55849;48.482;2.332;2023-12-14T18:48:49;24.25;21.25;13.75
68841;PMS5003;55849;48.482;2.332;2023-12-14T18:51:51;16.00;16.00;11.00
68841;PMS5003;55849;48.482;2.332;2023-12-14T18:54:53;26.75;18.50;13.50
68841;PMS5003;55849;48.482;2.332;2023-12-14T18:57:55;10.00;8.50;7.00
68841;PMS5003;55849;48.482;2.332;2023-12-14T19:00:57;18.00;18.00;10.00
68841;PMS5003;55849;48.482;2.332;2023-12-14T19:04:03;32.00;27.75;19.25
68841;PMS5003;55849;48.482;2.332;2023-12-14T19:07:05;9.00;6.50;3.00
68841;PMS5003;55849;48.482;2.332;2023-12-14T19:10:07;31.75;22.50;15.75
68841;PMS5003;55849;48.482;2.332;2023-12-14T19:13:09;12.50;10.25;6.25
68841;PMS5003;55849;48.482;2.332;2023-12-14T19:16:11;18.75;15.00;10.00
68841;PMS5003;55849;48.482;2.332;2023-12-14T19:19:14;21.00;16.25;11.50
68841;PMS5003;55849;48.482;2.332;2023-12-14T19:22:16;15.00;15.00;9.25
68841;PMS5003;55849;48.482;2.332;2023-12-14T19:25:17;29.50;24.75;15.75
68841;PMS5003;55849;48.482;2.332;2023-12-14T19:28:19;23.75;21.25;16.75
68841;PMS5003;55849;48.482;2.332;2023-12-14T19:31:22;16.50;13.00;10.00
68841;PMS5003;55849;48.482;2.332;2023-12-14T19:34:26;15.25;15.25;9.00
68841;PMS5003;55849;48.482;2.332;2023-12-14T19:37:27;6.50;6.50;4.00
68841;PMS5003;55849;48.482;2.332;2023-12-14T19:40:29;11.00;11.00;8.75
68841;PMS5003;55849;48.482;2.332;2023-12-14T19:43:30;12.00;9.25;5.00
68841;PMS5003;55849;48.482;2.332;2023-12-14T19:46:32;9.25;9.25;6.00
68841;PMS5003;55849;48.482;2.332;2023-12-14T19:49:35;5.00;4.50;4.00
68841;PMS5003;55849;48.482;2.332;2023-12-14T19:52:36;10.50;10.50;9.25
68841;PMS5003;55849;48.482;2.332;2023-12-14T19:55:40;7.00;6.75;3.50
68841;PMS5003;55849;48.482;2.332;2023-12-14T19:58:42;18.00;11.00;7.50
68841;PMS5003;55849;48.482;2.332;2023-12-14T20:01:45;14.50;11.50;9.50
68841;PMS5003;55849;48.482;2.332;2023-12-14T20:04:48;10.00;10.00;6.75
68841;PMS5003;55849;48.482;2.332;2023-12-14T20:07:50;9.00;8.50;6.00
68841;PMS5003;55849;48.482;2.332;2023-12-14T20:10:51;9.75;7.25;5.75
68841;PMS5003;55849;48.482;2.332;2023-12-14T20:13:53;12.50;9.75;7.00
68841;PMS5003;55849;48.482;2.332;2023-12-14T20:16:55;7.00;7.00;6.00
68841;PMS5003;55849;48.482;2.332;2023-12-14T20:19:57;17.00;12.25;9.50
68841;PMS5003;55849;48.482;2.332;2023-12-14T20:22:59;11.50;9.00;4.00
68841;PMS5003;55849;48.482;2.332;2023-12-14T20:26:01;9.00;6.75;4.00
68841;PMS5003;55849;48.482;2.332;2023-12-14T20:29:02;10.00;10.00;6.25
68841;PMS5003;55849;48.482;2.332;2023-12-14T20:32:04;10.00;6.25;5.00
68841;PMS5003;55849;48.482;2.332;2023-12-14T20:35:08;29.50;23.50;14.25
68841;PMS5003;55849;48.482;2.332;2023-12-14T20:38:09;12.25;10.50;7.00
68841;PMS5003;55849;48.482;2.332;2023-12-14T20:41:11;14.75;11.00;9.00
68841;PMS5003;55849;48.482;2.332;2023-12-14T20:44:13;29.25;23.50;13.50
68841;PMS5003;55849;48.482;2.332;2023-12-14T20:47:15;45.25;33.50;22.25
68841;PMS5003;55849;48.482;2.332;2023-12-14T20:50:18;26.75;20.75;15.50
68841;PMS5003;55849;48.482;2.332;2023-12-14T20:53:20;53.25;35.25;25.00
68841;PMS5003;55849;48.482;2.332;2023-12-14T20:56:22;33.50;31.50;21.25
68841;PMS5003;55849;48.482;2.332;2023-12-14T20:59:24;8.50;7.50;6.75
68841;PMS5003;55849;48.482;2.332;2023-12-14T21:02:25;33.50;33.50;20.00
68841;PMS5003;55849;48.482;2.332;2023-12-14T21:05:28;28.75;22.50;15.50
68841;PMS5003;55849;48.482;2.332;2023-12-14T21:08:30;29.00;24.75;15.00
68841;PMS5003;55849;48.482;2.332;2023-12-14T21:11:32;28.00;26.50;16.50
68841;PMS5003;55849;48.482;2.332;2023-12-14T21:14:33;38.50;33.50;23.00
68841;PMS5003;55849;48.482;2.332;2023-12-14T21:17:35;3.75;3.00;1.50
68841;PMS5003;55849;48.482;2.332;2023-12-14T21:20:38;15.50;14.50;9.25
68841;PMS5003;55849;48.482;2.332;2023-12-14T21:23:40;18.75;11.50;10.00
68841;PMS5003;55849;48.482;2.332;2023-12-14T21:26:41;1.50;0.75;0.50
68841;PMS5003;55849;48.482;2.332;2023-12-14T21:30:04;16.00;12.25;9.75
68841;PMS5003;55849;48.482;2.332;2023-12-14T21:33:05;19.75;16.25;12.00
68841;PMS5003;55849;48.482;2.332;2023-12-14T21:36:09;7.50;7.50;4.50
68841;PMS5003;55849;48.482;2.332;2023-12-14T21:39:11;5.00;4.50;4.00
68841;PMS5003;55849;48.482;2.332;2023-12-14T21:42:13;2.25;2.25;2.00
68841;PMS5003;55849;48.482;2.332;2023-12-14T21:45:15;9.25;6.00;4.00